createdAt,value
2018-12-31T00:02:18.638Z,89.40
2018-12-31T00:04:49.561Z,89.55
2018-12-31T00:07:20.444Z,89.65
2018-12-31T00:09:51.454Z,89.79
2018-12-31T00:12:22.664Z,89.88
2018-12-31T00:14:53.864Z,89.54
2018-12-31T00:17:24.753Z,89.63
2018-12-31T00:19:56.271Z,89.75
2018-12-31T00:22:27.197Z,89.64
2018-12-31T00:24:58.158Z,89.70
2018-12-31T00:27:29.077Z,89.94
2018-12-31T00:29:59.962Z,89.60
2018-12-31T00:32:31.267Z,89.31
2018-12-31T00:35:02.175Z,89.58
2018-12-31T00:37:33.122Z,89.24
2018-12-31T00:40:04.042Z,89.26
2018-12-31T00:42:34.917Z,88.93
2018-12-31T00:45:05.969Z,89.00
2018-12-31T00:47:37.496Z,88.81
2018-12-31T00:50:08.543Z,88.38
2018-12-31T00:52:39.774Z,88.24
2018-12-31T00:55:10.653Z,88.25
2018-12-31T00:57:41.611Z,88.59
2018-12-31T01:00:12.502Z,88.82
2018-12-31T01:02:43.467Z,88.95
2018-12-31T01:05:14.347Z,89.29
2018-12-31T01:07:45.507Z,89.60
2018-12-31T01:10:16.804Z,90.00
2018-12-31T01:12:47.717Z,90.26
2018-12-31T01:15:18.957Z,90.48
2018-12-31T01:17:49.915Z,90.68
2018-12-31T01:20:22.446Z,90.82
2018-12-31T01:22:53.401Z,90.86
2018-12-31T01:25:24.568Z,91.07
2018-12-31T01:27:55.479Z,91.09
2018-12-31T01:30:26.370Z,91.28
2018-12-31T01:32:57.305Z,91.23
2018-12-31T01:35:28.204Z,91.33
2018-12-31T01:37:59.473Z,91.53
2018-12-31T01:40:30.404Z,91.31
2018-12-31T01:43:01.628Z,91.53
2018-12-31T01:45:32.575Z,91.52
2018-12-31T01:48:03.756Z,91.70
2018-12-31T01:50:34.624Z,91.79
2018-12-31T01:53:05.533Z,92.04
2018-12-31T01:55:36.440Z,92.23
2018-12-31T01:58:07.440Z,92.49
2018-12-31T02:00:38.309Z,92.64
2018-12-31T02:03:09.202Z,92.72
2018-12-31T02:05:40.124Z,92.87
2018-12-31T02:08:11.040Z,93.03
2018-12-31T02:10:41.976Z,93.09
2018-12-31T02:13:12.882Z,93.07
2018-12-31T02:15:44.102Z,92.94
2018-12-31T02:18:15.028Z,92.73
2018-12-31T02:20:46.137Z,92.56
2018-12-31T02:23:17.088Z,92.59
2018-12-31T02:25:48.010Z,92.80
2018-12-31T02:28:18.893Z,92.99
2018-12-31T02:30:49.852Z,93.20
2018-12-31T02:33:20.809Z,93.31
2018-12-31T02:35:53.079Z,93.28
2018-12-31T02:38:23.980Z,93.36
2018-12-31T02:40:55.447Z,93.29
2018-12-31T02:43:26.381Z,93.07
2018-12-31T02:45:57.268Z,92.74
2018-12-31T02:48:28.196Z,92.72
2018-12-31T02:50:59.146Z,92.90
2018-12-31T02:53:30.095Z,93.05
2018-12-31T02:56:01.005Z,93.21
2018-12-31T02:58:32.503Z,93.34
2018-12-31T03:01:03.557Z,93.38
2018-12-31T03:03:34.500Z,93.44
2018-12-31T03:06:05.690Z,93.52
2018-12-31T03:08:36.629Z,93.45
2018-12-31T03:11:07.823Z,93.42
2018-12-31T03:13:38.870Z,93.21
2018-12-31T03:16:09.742Z,92.93
2018-12-31T03:18:40.864Z,92.48
2018-12-31T03:21:11.844Z,92.24
2018-12-31T03:23:43.060Z,92.11
2018-12-31T03:26:13.988Z,91.99
2018-12-31T03:28:44.881Z,92.12
2018-12-31T03:31:15.812Z,92.12
2018-12-31T03:33:46.779Z,92.29
2018-12-31T03:36:17.668Z,92.60
2018-12-31T03:38:48.607Z,92.81
2018-12-31T03:41:19.501Z,92.91
2018-12-31T03:43:50.750Z,93.05
2018-12-31T03:46:21.723Z,93.14
2018-12-31T03:48:52.967Z,93.10
2018-12-31T03:51:23.937Z,92.96
2018-12-31T03:53:54.818Z,92.88
2018-12-31T03:56:26.043Z,92.88
2018-12-31T03:58:57.229Z,92.86
2018-12-31T04:01:28.156Z,92.97
2018-12-31T04:03:59.360Z,92.71
2018-12-31T04:06:30.319Z,92.66
2018-12-31T04:09:01.533Z,92.43
2018-12-31T04:11:32.437Z,92.36
2018-12-31T04:14:03.388Z,92.46
2018-12-31T04:16:34.299Z,92.60
2018-12-31T04:19:05.185Z,92.84
2018-12-31T04:21:36.123Z,92.83
2018-12-31T04:24:07.023Z,92.78
2018-12-31T04:26:37.968Z,92.62
2018-12-31T04:29:09.128Z,92.78
2018-12-31T04:31:40.004Z,92.62
2018-12-31T04:34:10.947Z,92.48
2018-12-31T04:36:41.834Z,92.42
2018-12-31T04:39:12.732Z,92.54
2018-12-31T04:41:43.640Z,92.81
2018-12-31T04:44:14.558Z,92.93
2018-12-31T04:46:45.552Z,93.13
2018-12-31T04:49:16.726Z,93.36
2018-12-31T04:51:47.611Z,93.59
2018-12-31T04:54:18.540Z,93.76
2018-12-31T04:56:49.876Z,93.88
2018-12-31T04:59:20.855Z,93.83
2018-12-31T05:01:51.770Z,94.00
2018-12-31T05:04:22.731Z,93.95
2018-12-31T05:06:53.723Z,94.01
2018-12-31T05:09:24.600Z,94.14
2018-12-31T05:11:55.519Z,94.20
2018-12-31T05:14:26.396Z,94.38
2018-12-31T05:16:57.278Z,94.52
2018-12-31T05:19:28.258Z,94.54
2018-12-31T05:21:59.435Z,94.56
2018-12-31T05:24:30.384Z,94.58
2018-12-31T05:27:01.263Z,94.65
2018-12-31T05:29:32.222Z,94.75
2018-12-31T05:32:03.144Z,94.86
2018-12-31T05:34:34.028Z,94.85
2018-12-31T05:37:04.957Z,94.87
2018-12-31T05:39:35.836Z,94.84
2018-12-31T05:42:06.746Z,94.86
2018-12-31T05:44:37.645Z,94.85
2018-12-31T05:47:08.545Z,94.77
2018-12-31T05:49:39.792Z,94.77
2018-12-31T05:52:10.736Z,94.57
2018-12-31T05:54:41.647Z,94.49
2018-12-31T05:57:12.871Z,94.41
2018-12-31T05:59:43.768Z,94.35
2018-12-31T06:02:14.702Z,94.43
2018-12-31T06:04:45.609Z,94.49
2018-12-31T06:07:16.513Z,94.55
2018-12-31T06:09:47.509Z,94.61
2018-12-31T06:12:18.712Z,94.75
2018-12-31T06:14:49.972Z,94.89
2018-12-31T06:17:20.889Z,95.06
2018-12-31T06:19:51.766Z,95.18
2018-12-31T06:22:22.678Z,95.19
2018-12-31T06:24:53.630Z,95.25
2018-12-31T06:27:24.583Z,95.21
2018-12-31T06:29:55.464Z,95.16
2018-12-31T06:32:26.337Z,95.14
2018-12-31T06:34:57.266Z,95.13
2018-12-31T06:37:28.152Z,95.16
2018-12-31T06:39:59.054Z,95.23
2018-12-31T06:42:29.994Z,95.26
2018-12-31T06:45:00.901Z,95.24
2018-12-31T06:47:31.865Z,95.13
2018-12-31T06:50:02.763Z,95.05
2018-12-31T06:52:33.653Z,94.95
2018-12-31T06:55:05.871Z,94.95
2018-12-31T06:57:36.841Z,94.97
2018-12-31T07:00:08.132Z,95.04
2018-12-31T07:02:39.130Z,95.18
2018-12-31T07:05:10.043Z,95.30
2018-12-31T07:07:41.271Z,95.47
2018-12-31T07:10:12.209Z,95.56
2018-12-31T07:12:43.135Z,95.62
2018-12-31T07:15:14.011Z,95.56
2018-12-31T07:17:44.949Z,95.55
2018-12-31T07:20:15.935Z,95.62
2018-12-31T07:22:46.903Z,95.62
2018-12-31T07:25:17.886Z,95.58
2018-12-31T07:27:48.800Z,95.53
2018-12-31T07:30:20.057Z,95.49
2018-12-31T07:32:51.273Z,95.50
2018-12-31T07:35:22.151Z,95.46
2018-12-31T07:37:53.052Z,95.45
2018-12-31T07:40:23.984Z,95.48
2018-12-31T07:42:54.870Z,95.48
2018-12-31T07:45:25.824Z,95.51
2018-12-31T07:47:56.779Z,95.52
2018-12-31T07:50:28.276Z,95.60
2018-12-31T07:52:59.611Z,95.62
2018-12-31T07:55:30.482Z,95.66
2018-12-31T07:58:01.453Z,95.65
2018-12-31T08:00:32.409Z,95.66
2018-12-31T08:03:03.287Z,95.53
2018-12-31T08:05:34.158Z,95.57
2018-12-31T08:08:05.139Z,95.65
2018-12-31T08:10:36.429Z,95.73
2018-12-31T08:13:07.357Z,95.79
2018-12-31T08:15:38.275Z,95.84
2018-12-31T08:18:09.164Z,95.89
2018-12-31T08:20:40.074Z,95.96
2018-12-31T08:23:11.292Z,96.00
2018-12-31T08:25:42.256Z,96.06
2018-12-31T08:28:13.184Z,96.11
2018-12-31T08:30:44.141Z,96.10
2018-12-31T08:33:15.390Z,96.07
2018-12-31T08:35:46.566Z,96.05
2018-12-31T08:38:17.780Z,96.04
2018-12-31T08:40:48.679Z,95.97
2018-12-31T08:43:19.932Z,95.91
2018-12-31T08:45:50.851Z,95.91
2018-12-31T08:48:21.728Z,95.92
2018-12-31T08:50:52.617Z,95.92
2018-12-31T08:53:23.527Z,95.85
2018-12-31T08:55:54.728Z,95.79
2018-12-31T08:58:25.625Z,95.80
2018-12-31T09:00:56.607Z,95.70
2018-12-31T09:03:27.768Z,95.65
2018-12-31T09:05:58.966Z,95.56
2018-12-31T09:08:29.890Z,95.47
2018-12-31T09:11:00.793Z,95.31
2018-12-31T09:13:31.662Z,95.27
2018-12-31T09:16:02.598Z,95.31
2018-12-31T09:18:33.477Z,95.25
2018-12-31T09:21:04.384Z,95.12
2018-12-31T09:23:35.307Z,95.03
2018-12-31T09:26:06.223Z,94.93
2018-12-31T09:28:37.446Z,94.87
2018-12-31T09:31:08.414Z,94.72
2018-12-31T09:33:39.289Z,94.46
2018-12-31T09:36:10.448Z,94.23
2018-12-31T09:38:41.944Z,94.03
2018-12-31T09:41:13.434Z,94.11
2018-12-31T09:43:44.622Z,94.01
2018-12-31T09:46:15.554Z,93.98
2018-12-31T09:48:46.732Z,93.91
2018-12-31T09:51:17.613Z,94.07
2018-12-31T09:53:48.538Z,94.22
2018-12-31T09:56:19.508Z,94.36
2018-12-31T09:58:50.385Z,94.30
2018-12-31T10:01:21.333Z,93.99
2018-12-31T10:03:52.283Z,93.66
2018-12-31T10:06:23.174Z,93.39
2018-12-31T10:08:54.089Z,93.00
2018-12-31T10:11:25.057Z,93.08
2018-12-31T10:13:55.943Z,93.11
2018-12-31T10:16:27.129Z,93.47
2018-12-31T10:18:58.022Z,93.55
2018-12-31T10:21:28.946Z,93.81
2018-12-31T10:24:00.193Z,93.80
2018-12-31T10:26:31.069Z,94.06
2018-12-31T10:29:01.948Z,94.07
2018-12-31T10:31:32.868Z,94.01
2018-12-31T10:34:03.842Z,93.64
2018-12-31T10:36:34.770Z,93.12
2018-12-31T10:39:07.797Z,93.12
2018-12-31T10:41:38.966Z,93.08
2018-12-31T10:44:10.123Z,92.90
2018-12-31T10:46:41.364Z,92.82
2018-12-31T10:49:12.227Z,92.91
2018-12-31T10:51:43.103Z,92.48
2018-12-31T10:54:14.041Z,92.49
2018-12-31T10:56:45.236Z,92.83
2018-12-31T10:59:16.118Z,93.23
2018-12-31T11:01:47.048Z,93.32
2018-12-31T11:04:18.023Z,92.91
2018-12-31T11:06:49.204Z,92.55
2018-12-31T11:09:20.142Z,92.61
2018-12-31T11:11:51.013Z,92.50
2018-12-31T11:14:22.172Z,91.57
2018-12-31T11:16:53.085Z,91.88
2018-12-31T11:19:24.253Z,91.99
2018-12-31T11:21:55.450Z,91.21
2018-12-31T11:24:26.386Z,91.12
2018-12-31T11:26:57.300Z,90.55
2018-12-31T11:29:28.186Z,90.31
2018-12-31T11:31:59.475Z,90.23
2018-12-31T11:34:30.365Z,90.24
2018-12-31T11:37:01.229Z,90.73
2018-12-31T11:39:32.481Z,90.47
2018-12-31T11:42:03.359Z,90.02
2018-12-31T11:44:34.281Z,89.73
2018-12-31T11:47:05.193Z,89.79
2018-12-31T11:49:36.073Z,90.03
2018-12-31T11:52:06.998Z,89.92
2018-12-31T11:54:39.310Z,90.39
2018-12-31T11:57:10.666Z,90.16
2018-12-31T11:59:41.645Z,90.26
2018-12-31T12:02:12.519Z,89.73
2018-12-31T12:04:43.440Z,89.32
2018-12-31T12:07:14.372Z,89.61
2018-12-31T12:09:45.260Z,89.80
2018-12-31T12:12:16.163Z,89.76
2018-12-31T12:14:47.479Z,89.54
2018-12-31T12:17:18.441Z,89.71
2018-12-31T12:19:49.333Z,89.47
2018-12-31T12:22:20.554Z,89.39
2018-12-31T12:24:52.003Z,89.72
2018-12-31T12:27:22.925Z,90.35
2018-12-31T12:29:53.814Z,90.46
2018-12-31T12:32:25.665Z,90.37
2018-12-31T12:34:56.993Z,90.45
2018-12-31T12:37:27.888Z,90.54
2018-12-31T12:39:58.906Z,90.62
2018-12-31T12:42:30.208Z,90.05
2018-12-31T12:45:01.110Z,89.97
2018-12-31T12:47:32.008Z,90.77
2018-12-31T12:50:03.033Z,90.81
2018-12-31T12:52:34.029Z,90.81
2018-12-31T12:55:05.101Z,91.38
2018-12-31T12:57:36.169Z,91.44
2018-12-31T13:00:07.875Z,90.75
2018-12-31T13:02:39.135Z,90.98
2018-12-31T13:05:10.172Z,91.18
2018-12-31T13:07:41.436Z,91.14
2018-12-31T13:10:12.679Z,91.05
2018-12-31T13:12:43.917Z,91.90
2018-12-31T13:15:15.686Z,91.87
2018-12-31T13:17:47.000Z,91.66
2018-12-31T13:20:17.921Z,91.58
2018-12-31T13:22:48.931Z,91.91
2018-12-31T13:25:20.410Z,92.21
2018-12-31T13:27:51.304Z,92.07
2018-12-31T13:30:22.238Z,92.05
2018-12-31T13:32:53.247Z,92.05
2018-12-31T13:35:24.133Z,92.58
2018-12-31T13:37:55.452Z,92.44
2018-12-31T13:40:26.944Z,91.94
2018-12-31T13:42:58.125Z,91.63
2018-12-31T13:45:29.111Z,91.43
2018-12-31T13:48:00.084Z,91.18
2018-12-31T13:50:31.859Z,91.67
2018-12-31T13:53:02.826Z,91.79
2018-12-31T13:55:33.836Z,91.96
2018-12-31T13:58:05.054Z,92.29
2018-12-31T14:00:37.796Z,92.78
2018-12-31T14:03:16.880Z,92.70
2018-12-31T14:05:41.514Z,92.48
2018-12-31T14:08:12.477Z,92.33
2018-12-31T14:10:43.441Z,92.24
2018-12-31T14:13:14.342Z,92.31
2018-12-31T14:15:45.363Z,92.52
2018-12-31T14:18:16.312Z,92.62
2018-12-31T14:20:47.286Z,92.42
2018-12-31T14:23:18.215Z,92.38
2018-12-31T14:25:49.226Z,92.44
2018-12-31T14:28:20.108Z,92.55
2018-12-31T14:30:51.320Z,92.69
2018-12-31T14:33:22.606Z,93.20
2018-12-31T14:35:53.535Z,92.94
2018-12-31T14:38:24.497Z,92.84
2018-12-31T14:40:55.698Z,92.67
2018-12-31T14:43:34.557Z,92.89
2018-12-31T14:46:05.575Z,93.45
2018-12-31T14:48:36.841Z,93.51
2018-12-31T14:51:07.848Z,93.49
2018-12-31T14:53:38.815Z,93.41
2018-12-31T14:56:09.744Z,93.13
2018-12-31T14:58:40.740Z,93.16
2018-12-31T15:01:11.720Z,92.89
2018-12-31T15:03:42.724Z,92.97
2018-12-31T15:06:13.986Z,93.24
2018-12-31T15:08:44.932Z,93.01
2018-12-31T15:11:15.900Z,92.90
2018-12-31T15:13:46.867Z,93.33
2018-12-31T15:16:18.338Z,93.88
2018-12-31T15:18:49.543Z,93.91
2018-12-31T15:21:20.425Z,93.76
2018-12-31T15:23:51.393Z,93.71
2018-12-31T15:26:22.313Z,93.57
2018-12-31T15:28:53.320Z,93.53
2018-12-31T15:31:24.330Z,93.77
2018-12-31T15:33:55.321Z,94.00
2018-12-31T15:36:26.341Z,94.26
2018-12-31T15:38:57.253Z,94.39
2018-12-31T15:41:28.137Z,94.40
2018-12-31T15:43:59.077Z,94.25
2018-12-31T15:46:30.080Z,93.63
2018-12-31T15:49:01.660Z,93.29
2018-12-31T15:51:32.986Z,93.28
2018-12-31T15:54:04.179Z,93.59
2018-12-31T15:56:35.084Z,93.92
2018-12-31T15:59:06.090Z,93.82
2018-12-31T16:01:37.020Z,93.75
2018-12-31T16:04:07.955Z,93.60
2018-12-31T16:06:38.970Z,93.35
2018-12-31T16:09:09.976Z,93.16
2018-12-31T16:11:41.478Z,92.85
2018-12-31T16:14:12.387Z,92.58
2018-12-31T16:16:43.293Z,92.37
2018-12-31T16:19:14.237Z,92.46
2018-12-31T16:21:45.147Z,92.79
2018-12-31T16:24:16.404Z,92.92
2018-12-31T16:26:47.378Z,92.76
2018-12-31T16:29:18.248Z,92.67
2018-12-31T16:31:49.304Z,92.54
2018-12-31T16:34:20.245Z,92.74
2018-12-31T16:36:51.301Z,92.68
2018-12-31T16:39:22.304Z,92.49
2018-12-31T16:41:53.311Z,92.51
2018-12-31T16:44:24.506Z,92.53
2018-12-31T16:46:55.459Z,92.23
2018-12-31T16:49:26.425Z,91.97
2018-12-31T16:52:02.650Z,91.86
2018-12-31T16:54:30.329Z,91.77
2018-12-31T16:57:01.297Z,91.55
2018-12-31T16:59:32.220Z,91.82
2018-12-31T17:02:03.516Z,91.96
2018-12-31T17:04:34.440Z,92.04
2018-12-31T17:07:05.647Z,91.74
2018-12-31T17:09:36.587Z,91.71
2018-12-31T17:12:07.488Z,91.84
2018-12-31T17:14:38.685Z,92.08
2018-12-31T17:17:09.701Z,92.31
2018-12-31T17:19:40.640Z,92.44
2018-12-31T17:22:11.813Z,92.51
2018-12-31T17:24:42.859Z,92.59
2018-12-31T17:27:13.773Z,92.51
2018-12-31T17:29:45.032Z,92.37
2018-12-31T17:32:15.970Z,92.14
2018-12-31T17:34:46.884Z,92.09
2018-12-31T17:37:17.836Z,92.18
2018-12-31T17:39:48.971Z,92.08
2018-12-31T17:42:19.927Z,92.13
2018-12-31T17:44:50.812Z,92.13
2018-12-31T17:47:21.745Z,91.88
2018-12-31T17:49:52.746Z,91.61
2018-12-31T17:52:23.712Z,91.84
2018-12-31T17:54:55.021Z,92.05
2018-12-31T17:57:25.932Z,92.07
2018-12-31T17:59:56.859Z,91.95
2018-12-31T18:02:28.470Z,91.71
2018-12-31T18:04:59.420Z,91.77
2018-12-31T18:07:30.288Z,92.01
2018-12-31T18:10:01.212Z,91.88
2018-12-31T18:12:32.177Z,91.75
2018-12-31T18:15:03.114Z,91.46
2018-12-31T18:17:34.041Z,91.22
2018-12-31T18:20:05.703Z,91.17
2018-12-31T18:22:36.566Z,91.10
2018-12-31T18:25:07.874Z,91.31
2018-12-31T18:27:38.754Z,91.12
2018-12-31T18:30:11.496Z,90.96
2018-12-31T18:32:42.382Z,90.77
2018-12-31T18:35:14.009Z,90.32
2018-12-31T18:37:44.952Z,90.20
2018-12-31T18:40:15.827Z,90.14
2018-12-31T18:42:46.818Z,89.69
2018-12-31T18:45:17.745Z,89.65
2018-12-31T18:47:48.706Z,89.86
2018-12-31T18:50:19.605Z,89.73
2018-12-31T18:52:50.608Z,89.78
2018-12-31T18:55:21.579Z,90.06
2018-12-31T18:57:52.722Z,90.07
2018-12-31T19:00:23.704Z,90.05
2018-12-31T19:02:54.967Z,89.91
2018-12-31T19:05:25.843Z,90.02
2018-12-31T19:07:56.805Z,89.91
2018-12-31T19:10:27.684Z,89.93
2018-12-31T19:12:58.659Z,90.01
2018-12-31T19:15:29.621Z,90.21
2018-12-31T19:18:00.506Z,90.25
2018-12-31T19:20:31.753Z,90.13
2018-12-31T19:23:02.764Z,89.85
2018-12-31T19:25:33.785Z,89.71
2018-12-31T19:28:04.661Z,89.80
2018-12-31T19:30:35.594Z,89.91
2018-12-31T19:33:06.554Z,89.88
2018-12-31T19:35:37.758Z,90.05
2018-12-31T19:38:08.756Z,89.94
2018-12-31T19:40:39.954Z,89.81
2018-12-31T19:43:11.229Z,90.27
2018-12-31T19:45:42.153Z,89.92
2018-12-31T19:48:13.322Z,89.60
2018-12-31T19:50:44.282Z,89.29
2018-12-31T19:53:15.311Z,88.87
2018-12-31T19:55:46.283Z,88.59
2018-12-31T19:58:17.187Z,88.62
2018-12-31T20:00:48.177Z,88.34
2018-12-31T20:03:19.053Z,88.36
2018-12-31T20:05:50.012Z,87.62
2018-12-31T20:08:21.040Z,87.53
2018-12-31T20:10:51.957Z,87.36
2018-12-31T20:13:22.832Z,87.21
2018-12-31T20:15:53.759Z,86.96
2018-12-31T20:18:24.725Z,87.08
2018-12-31T20:20:55.641Z,86.48
2018-12-31T20:23:26.636Z,87.14
2018-12-31T20:25:57.585Z,87.19
2018-12-31T20:28:28.745Z,86.83
2018-12-31T20:30:59.812Z,87.48
2018-12-31T20:33:30.762Z,87.61
2018-12-31T20:36:01.654Z,87.66
2018-12-31T20:38:32.663Z,86.90
2018-12-31T20:41:03.787Z,85.91
2018-12-31T20:43:34.768Z,85.66
2018-12-31T20:46:05.706Z,85.74
2018-12-31T20:48:36.687Z,85.18
2018-12-31T20:51:08.026Z,85.14
2018-12-31T20:53:38.964Z,84.31
2018-12-31T20:56:09.909Z,84.47
2018-12-31T20:58:40.911Z,84.86
2018-12-31T21:01:11.826Z,84.93
2018-12-31T21:03:43.117Z,84.71
2018-12-31T21:06:14.294Z,84.56
2018-12-31T21:08:45.218Z,84.58
2018-12-31T21:11:16.216Z,84.43
2018-12-31T21:13:47.197Z,84.94
2018-12-31T21:16:18.092Z,85.22
2018-12-31T21:18:49.042Z,84.89
2018-12-31T21:21:20.026Z,85.07
2018-12-31T21:23:51.003Z,84.78
2018-12-31T21:26:22.188Z,85.09
2018-12-31T21:28:53.058Z,85.18
2018-12-31T21:31:26.171Z,85.10
2018-12-31T21:33:57.056Z,85.35
2018-12-31T21:36:28.317Z,85.41
2018-12-31T21:38:59.292Z,84.54
2018-12-31T21:41:30.168Z,83.95
2018-12-31T21:44:01.478Z,83.16
2018-12-31T21:46:32.375Z,83.21
2018-12-31T21:49:03.679Z,83.96
2018-12-31T21:51:34.550Z,83.61
2018-12-31T21:54:05.480Z,83.82
2018-12-31T21:56:36.481Z,83.78
2018-12-31T21:59:07.452Z,83.57
2018-12-31T22:01:38.641Z,83.44
2018-12-31T22:04:09.834Z,83.22
2018-12-31T22:06:40.740Z,83.31
2018-12-31T22:09:11.621Z,82.73
2018-12-31T22:11:42.572Z,82.72
2018-12-31T22:14:13.446Z,82.85
2018-12-31T22:16:44.733Z,82.66
2018-12-31T22:19:15.701Z,82.82
2018-12-31T22:21:47.042Z,82.83
2018-12-31T22:24:18.321Z,82.89
2018-12-31T22:26:49.305Z,82.92
2018-12-31T22:29:20.221Z,83.24
2018-12-31T22:31:51.096Z,83.44
2018-12-31T22:34:22.213Z,83.52
2018-12-31T22:36:53.091Z,83.97
2018-12-31T22:39:24.271Z,84.18
2018-12-31T22:41:55.251Z,84.31
2018-12-31T22:44:26.256Z,84.72
2018-12-31T22:46:57.247Z,84.65
2018-12-31T22:49:28.165Z,84.99
2018-12-31T22:51:59.081Z,85.45
2018-12-31T22:54:29.986Z,85.55
2018-12-31T22:57:01.213Z,85.94
2018-12-31T22:59:32.186Z,85.68
2018-12-31T23:02:03.161Z,86.04
2018-12-31T23:04:34.129Z,86.30
2018-12-31T23:07:08.604Z,86.35
2018-12-31T23:09:41.351Z,86.65
2018-12-31T23:12:13.161Z,86.92
2018-12-31T23:14:44.152Z,87.12
2018-12-31T23:17:17.558Z,87.87
2018-12-31T23:19:48.509Z,88.08
2018-12-31T23:22:19.778Z,87.79
2018-12-31T23:24:51.026Z,88.06
2018-12-31T23:27:22.023Z,87.51
2018-12-31T23:29:53.159Z,87.19
2018-12-31T23:32:24.142Z,87.12
2018-12-31T23:34:55.115Z,87.40
2018-12-31T23:37:26.027Z,86.18
2018-12-31T23:39:57.070Z,86.13
2018-12-31T23:42:27.997Z,85.54
2018-12-31T23:44:59.000Z,85.11
2018-12-31T23:47:30.219Z,84.46
2018-12-31T23:50:01.233Z,84.30
2018-12-31T23:52:32.174Z,84.28
2018-12-31T23:55:03.057Z,83.95
2018-12-31T23:57:45.327Z,83.66
